createdAt,value
2023-05-01T00:02:27.574Z,13.42
2023-05-01T00:04:54.871Z,13.36
2023-05-01T00:07:22.086Z,13.32
2023-05-01T00:09:49.351Z,13.20
2023-05-01T00:12:16.536Z,13.13
2023-05-01T00:14:43.754Z,13.17
2023-05-01T00:17:10.846Z,13.13
2023-05-01T00:19:38.017Z,13.12
2023-05-01T00:22:05.099Z,13.12
2023-05-01T00:24:32.307Z,13.14
2023-05-01T00:26:59.594Z,13.13
2023-05-01T00:29:26.742Z,13.10
2023-05-01T00:31:55.342Z,13.00
2023-05-01T00:34:22.736Z,12.99
2023-05-01T00:36:50.091Z,13.02
2023-05-01T00:39:17.558Z,12.97
2023-05-01T00:41:44.672Z,12.97
2023-05-01T00:44:12.171Z,12.99
2023-05-01T00:46:39.401Z,12.85
2023-05-01T00:49:06.670Z,12.99
2023-05-01T00:51:34.435Z,13.00
2023-05-01T00:54:02.178Z,13.00
2023-05-01T00:56:31.543Z,12.97
2023-05-01T00:59:00.017Z,12.98
2023-05-01T01:01:27.224Z,12.92
2023-05-01T01:03:57.545Z,12.85
2023-05-01T01:06:51.569Z,12.80
2023-05-01T01:09:44.363Z,12.88
2023-05-01T01:12:28.128Z,12.91
2023-05-01T01:15:02.779Z,12.89
2023-05-01T01:17:47.187Z,12.91
2023-05-01T01:20:33.196Z,12.85
2023-05-01T01:23:27.923Z,12.86
2023-05-01T01:26:04.010Z,12.81
2023-05-01T01:29:05.212Z,12.75
2023-05-01T01:31:56.499Z,12.62
2023-05-01T01:34:33.361Z,12.70
2023-05-01T01:37:15.461Z,12.65
2023-05-01T01:39:45.165Z,12.64
2023-05-01T01:42:18.718Z,12.60
2023-05-01T01:44:55.213Z,12.59
2023-05-01T01:47:28.678Z,12.52
2023-05-01T01:49:57.535Z,12.51
2023-05-01T01:52:26.909Z,12.48
2023-05-01T01:55:02.150Z,12.30
2023-05-01T01:57:30.428Z,12.41
2023-05-01T01:59:58.756Z,12.40
2023-05-01T02:02:28.007Z,12.35
2023-05-01T02:05:02.761Z,12.25
2023-05-01T02:07:31.146Z,12.26
2023-05-01T02:09:59.730Z,12.12
2023-05-01T02:12:27.649Z,12.25
2023-05-01T02:14:56.672Z,12.02
2023-05-01T02:17:24.530Z,12.20
2023-05-01T02:19:53.670Z,12.24
2023-05-01T02:22:23.133Z,12.25
2023-05-01T02:24:50.552Z,12.11
2023-05-01T02:27:23.636Z,11.92
2023-05-01T02:29:54.617Z,12.10
2023-05-01T02:32:22.912Z,12.07
2023-05-01T02:34:50.323Z,11.97
2023-05-01T02:37:17.969Z,12.08
2023-05-01T02:39:46.762Z,12.19
2023-05-01T02:42:16.858Z,12.04
2023-05-01T02:44:51.391Z,12.13
2023-05-01T02:47:22.638Z,12.14
2023-05-01T02:49:52.076Z,12.12
2023-05-01T02:52:20.159Z,12.09
2023-05-01T02:54:50.849Z,12.03
2023-05-01T02:57:20.570Z,11.86
2023-05-01T02:59:47.968Z,11.92
2023-05-01T03:02:16.216Z,11.93
2023-05-01T03:04:44.263Z,11.94
2023-05-01T03:07:11.577Z,11.89
2023-05-01T03:09:38.819Z,11.94
2023-05-01T03:12:06.281Z,11.93
2023-05-01T03:14:33.767Z,11.63
2023-05-01T03:17:01.187Z,11.43
2023-05-01T03:19:28.506Z,11.28
2023-05-01T03:21:55.748Z,11.26
2023-05-01T03:24:22.885Z,11.02
2023-05-01T03:26:49.981Z,11.07
2023-05-01T03:29:17.244Z,11.19
2023-05-01T03:31:44.601Z,11.53
2023-05-01T03:34:11.965Z,11.58
2023-05-01T03:36:39.293Z,11.56
2023-05-01T03:39:08.893Z,11.52
2023-05-01T03:41:54.692Z,11.54
2023-05-01T03:44:24.992Z,11.34
2023-05-01T03:46:52.220Z,11.45
2023-05-01T03:49:29.162Z,11.43
2023-05-01T03:51:56.971Z,11.54
2023-05-01T03:54:24.871Z,11.54
2023-05-01T03:56:58.963Z,11.61
2023-05-01T03:59:26.254Z,11.71
2023-05-01T04:01:53.578Z,11.80
2023-05-01T04:04:21.459Z,11.77
2023-05-01T04:06:55.510Z,11.82
2023-05-01T04:09:22.740Z,11.90
2023-05-01T04:11:49.828Z,12.05
2023-05-01T04:14:17.064Z,12.01
2023-05-01T04:16:44.974Z,12.08
2023-05-01T04:19:12.045Z,12.23
2023-05-01T04:21:42.783Z,12.27
2023-05-01T04:24:09.933Z,12.35
2023-05-01T04:26:37.149Z,12.34
2023-05-01T04:29:05.053Z,12.53
2023-05-01T04:31:32.165Z,12.40
2023-05-01T04:34:01.979Z,12.58
2023-05-01T04:36:29.990Z,12.81
2023-05-01T04:38:57.607Z,12.91
2023-05-01T04:41:24.869Z,13.02
2023-05-01T04:43:52.837Z,13.20
2023-05-01T04:46:20.046Z,13.31
2023-05-01T04:48:47.765Z,13.28
2023-05-01T04:51:14.861Z,13.41
2023-05-01T04:53:42.184Z,13.43
2023-05-01T04:56:19.019Z,13.47
2023-05-01T04:58:47.569Z,13.46
2023-05-01T05:01:18.534Z,13.46
2023-05-01T05:03:48.975Z,13.55
2023-05-01T05:06:20.404Z,13.71
2023-05-01T05:08:47.544Z,13.79
2023-05-01T05:11:15.403Z,13.79
2023-05-01T05:13:49.705Z,13.65
2023-05-01T05:16:17.781Z,13.47
2023-05-01T05:18:44.976Z,13.48
2023-05-01T05:21:12.241Z,13.73
2023-05-01T05:23:44.773Z,13.75
2023-05-01T05:26:12.108Z,13.37
2023-05-01T05:28:39.530Z,13.71
2023-05-01T05:31:07.815Z,13.75
2023-05-01T05:33:35.571Z,14.12
2023-05-01T05:36:03.421Z,13.84
2023-05-01T05:38:36.102Z,14.11
2023-05-01T05:41:04.913Z,14.32
2023-05-01T05:43:32.701Z,14.41
2023-05-01T05:46:00.301Z,14.54
2023-05-01T05:48:28.449Z,14.73
2023-05-01T05:50:56.413Z,14.91
2023-05-01T05:53:25.870Z,14.83
2023-05-01T05:55:53.944Z,15.12
2023-05-01T05:58:21.640Z,15.25
2023-05-01T06:00:50.709Z,15.33
2023-05-01T06:03:18.555Z,15.53
2023-05-01T06:05:46.272Z,15.61
2023-05-01T06:08:14.732Z,15.45
2023-05-01T06:10:44.038Z,15.43
2023-05-01T06:13:13.982Z,15.32
2023-05-01T06:15:45.634Z,15.46
2023-05-01T06:18:13.457Z,15.56
2023-05-01T06:20:40.785Z,15.33
2023-05-01T06:23:09.839Z,15.20
2023-05-01T06:25:51.850Z,15.25
2023-05-01T06:28:19.899Z,15.33
2023-05-01T06:30:48.084Z,15.30
2023-05-01T06:33:17.339Z,15.21
2023-05-01T06:35:48.936Z,15.24
2023-05-01T06:38:16.614Z,15.54
2023-05-01T06:40:47.495Z,15.61
2023-05-01T06:43:16.764Z,15.64
2023-05-01T06:45:44.188Z,15.80
2023-05-01T06:48:11.891Z,15.82
2023-05-01T06:50:39.126Z,15.86
2023-05-01T06:53:06.208Z,16.02
2023-05-01T06:55:36.218Z,16.05
2023-05-01T06:58:12.733Z,16.02
2023-05-01T07:00:49.553Z,15.95
2023-05-01T07:03:16.750Z,16.02
2023-05-01T07:05:43.929Z,16.28
2023-05-01T07:08:11.471Z,16.43
2023-05-01T07:10:40.554Z,16.59
2023-05-01T07:13:09.770Z,16.50
2023-05-01T07:15:37.554Z,16.65
2023-05-01T07:18:06.458Z,16.63
2023-05-01T07:20:35.006Z,16.45
2023-05-01T07:23:02.216Z,16.90
2023-05-01T07:25:30.252Z,17.33
2023-05-01T07:27:57.465Z,17.72
2023-05-01T07:30:24.867Z,17.82
2023-05-01T07:32:52.031Z,18.10
2023-05-01T07:35:22.106Z,18.14
2023-05-01T07:37:51.980Z,17.87
2023-05-01T07:40:19.418Z,17.72
2023-05-01T07:42:54.427Z,17.75
2023-05-01T07:45:21.964Z,18.16
2023-05-01T07:47:50.240Z,18.39
2023-05-01T07:50:17.503Z,18.61
2023-05-01T07:52:44.938Z,18.83
2023-05-01T07:55:12.155Z,18.95
2023-05-01T07:57:42.250Z,19.25
2023-05-01T08:00:10.055Z,19.26
2023-05-01T08:02:43.795Z,19.48
2023-05-01T08:05:16.623Z,19.54
2023-05-01T08:07:43.851Z,19.77
2023-05-01T08:10:11.332Z,19.99
2023-05-01T08:12:38.700Z,19.48
2023-05-01T08:15:07.675Z,19.64
2023-05-01T08:17:38.203Z,20.01
2023-05-01T08:20:06.188Z,20.08
2023-05-01T08:22:36.099Z,20.01
2023-05-01T08:25:03.249Z,19.92
2023-05-01T08:27:30.750Z,20.21
2023-05-01T08:29:58.222Z,20.46
2023-05-01T08:32:25.880Z,20.05
2023-05-01T08:34:53.183Z,19.95
2023-05-01T08:37:20.355Z,19.89
2023-05-01T08:39:47.444Z,19.71
2023-05-01T08:42:14.645Z,20.12
2023-05-01T08:44:42.682Z,20.50
2023-05-01T08:47:22.323Z,20.52
2023-05-01T08:49:52.848Z,20.62
2023-05-01T08:52:22.552Z,20.70
2023-05-01T08:54:57.211Z,20.87
2023-05-01T08:57:26.198Z,21.02
2023-05-01T08:59:56.773Z,21.08
2023-05-01T09:02:25.121Z,21.37
2023-05-01T09:04:53.535Z,21.35
2023-05-01T09:07:20.708Z,21.07
2023-05-01T09:09:47.847Z,21.56
2023-05-01T09:12:26.681Z,21.61
2023-05-01T09:14:55.323Z,21.59
2023-05-01T09:17:24.291Z,21.68
2023-05-01T09:19:52.474Z,21.80
2023-05-01T09:22:20.606Z,21.80
2023-05-01T09:24:47.720Z,22.00
2023-05-01T09:27:15.470Z,21.68
2023-05-01T09:29:42.553Z,21.79
2023-05-01T09:32:19.578Z,21.90
2023-05-01T09:34:48.696Z,21.79
2023-05-01T09:37:30.309Z,22.00
2023-05-01T09:40:11.939Z,22.12
2023-05-01T09:42:52.416Z,22.17
2023-05-01T09:45:22.224Z,22.37
2023-05-01T09:47:50.323Z,21.71
2023-05-01T09:50:32.444Z,22.00
2023-05-01T09:53:02.075Z,22.01
2023-05-01T09:55:29.358Z,22.17
2023-05-01T09:57:56.860Z,22.27
2023-05-01T10:00:24.058Z,22.50
2023-05-01T10:02:52.597Z,22.60
2023-05-01T10:05:20.172Z,22.88
2023-05-01T10:08:03.146Z,22.94
2023-05-01T10:10:30.702Z,22.89
2023-05-01T10:13:19.419Z,23.08
2023-05-01T10:15:50.483Z,23.07
2023-05-01T10:18:19.094Z,23.19
2023-05-01T10:20:46.773Z,23.23
2023-05-01T10:23:14.601Z,23.11
2023-05-01T10:25:43.052Z,22.86
2023-05-01T10:28:12.184Z,23.21
2023-05-01T10:30:41.544Z,23.31
2023-05-01T10:33:08.832Z,23.10
2023-05-01T10:35:39.600Z,23.13
2023-05-01T10:38:09.870Z,23.35
2023-05-01T10:40:39.996Z,23.53
2023-05-01T10:43:26.678Z,23.76
2023-05-01T10:45:55.992Z,24.08
2023-05-01T10:48:56.508Z,24.15
2023-05-01T10:51:27.872Z,24.38
2023-05-01T10:54:22.806Z,24.20
2023-05-01T10:56:50.526Z,24.49
2023-05-01T10:59:18.088Z,24.56
2023-05-01T11:01:48.694Z,24.56
2023-05-01T11:04:27.883Z,24.64
2023-05-01T11:06:58.186Z,24.94
2023-05-01T11:09:42.725Z,25.02
2023-05-01T11:12:12.654Z,25.19
2023-05-01T11:14:58.293Z,25.68
2023-05-01T11:17:43.886Z,25.94
2023-05-01T11:20:37.201Z,25.88
2023-05-01T11:23:04.726Z,26.15
2023-05-01T11:25:36.197Z,26.58
2023-05-01T11:28:07.283Z,26.54
2023-05-01T11:30:39.075Z,26.60
2023-05-01T11:33:10.200Z,26.84
2023-05-01T11:35:39.385Z,26.92
2023-05-01T11:38:06.466Z,27.40
2023-05-01T11:40:35.264Z,27.59
2023-05-01T11:43:10.402Z,27.61
2023-05-01T11:45:38.225Z,27.95
2023-05-01T11:48:05.711Z,28.01
2023-05-01T11:50:34.487Z,28.59
2023-05-01T11:53:02.399Z,28.84
2023-05-01T11:55:33.659Z,28.96
2023-05-01T11:58:02.589Z,29.24
2023-05-01T12:00:34.078Z,29.73
2023-05-01T12:03:04.395Z,29.83
2023-05-01T12:05:33.419Z,30.22
2023-05-01T12:08:11.759Z,30.27
2023-05-01T12:10:41.198Z,30.27
2023-05-01T12:13:10.081Z,30.39
2023-05-01T12:15:42.569Z,30.40
2023-05-01T12:18:10.134Z,30.34
2023-05-01T12:20:41.678Z,30.36
2023-05-01T12:23:11.815Z,30.60
2023-05-01T12:25:41.103Z,30.70
2023-05-01T12:28:11.317Z,30.84
2023-05-01T12:30:39.370Z,30.32
2023-05-01T12:33:24.239Z,30.04
2023-05-01T12:35:51.754Z,30.22
2023-05-01T12:38:21.030Z,30.46
2023-05-01T12:40:59.710Z,30.62
2023-05-01T12:43:37.508Z,30.79
2023-05-01T12:46:06.149Z,31.10
2023-05-01T12:48:34.520Z,30.72
2023-05-01T12:51:01.948Z,31.10
2023-05-01T12:53:29.979Z,31.24
2023-05-01T12:55:59.006Z,31.11
2023-05-01T12:58:37.265Z,31.20
2023-05-01T13:01:04.950Z,31.47
2023-05-01T13:03:34.032Z,31.84
2023-05-01T13:06:04.433Z,32.02
2023-05-01T13:08:38.017Z,31.57
2023-05-01T13:11:17.278Z,31.91
2023-05-01T13:13:45.833Z,31.06
2023-05-01T13:16:14.881Z,30.85
2023-05-01T13:18:53.708Z,30.71
2023-05-01T13:21:23.016Z,31.24
2023-05-01T13:23:59.067Z,31.56
2023-05-01T13:26:27.781Z,31.80
2023-05-01T13:28:55.701Z,31.86
2023-05-01T13:31:23.273Z,31.50
2023-05-01T13:33:52.455Z,31.73
2023-05-01T13:36:26.163Z,31.94
2023-05-01T13:38:57.154Z,31.77
2023-05-01T13:41:26.835Z,31.91
2023-05-01T13:43:56.451Z,31.96
2023-05-01T13:46:25.623Z,31.68
2023-05-01T13:48:53.667Z,31.87
2023-05-01T13:51:22.968Z,31.98
2023-05-01T13:53:51.443Z,31.76
2023-05-01T13:56:18.791Z,31.69
2023-05-01T13:58:46.893Z,31.68
2023-05-01T14:01:19.193Z,31.30
2023-05-01T14:03:48.133Z,31.32
2023-05-01T14:06:17.180Z,31.21
2023-05-01T14:08:46.603Z,31.30
2023-05-01T14:11:15.034Z,31.19
2023-05-01T14:13:44.312Z,31.11
2023-05-01T14:16:21.666Z,31.16
2023-05-01T14:18:49.025Z,31.07
2023-05-01T14:21:18.157Z,30.86
2023-05-01T14:23:46.432Z,30.55
2023-05-01T14:26:18.802Z,30.35
2023-05-01T14:28:48.552Z,30.00
2023-05-01T14:31:30.570Z,29.60
2023-05-01T14:34:07.472Z,29.37
2023-05-01T14:36:35.131Z,28.43
2023-05-01T14:39:04.304Z,27.31
2023-05-01T14:41:34.939Z,26.50
2023-05-01T14:44:03.984Z,26.20
2023-05-01T14:46:37.709Z,25.76
2023-05-01T14:49:05.172Z,25.18
2023-05-01T14:51:33.836Z,25.44
2023-05-01T14:54:01.751Z,25.42
2023-05-01T14:56:28.936Z,25.72
2023-05-01T14:58:56.167Z,25.82
2023-05-01T15:01:23.390Z,25.62
2023-05-01T15:03:50.847Z,25.46
2023-05-01T15:06:18.086Z,25.06
2023-05-01T15:08:45.983Z,25.22
2023-05-01T15:11:18.312Z,25.29
2023-05-01T15:13:46.398Z,25.27
2023-05-01T15:16:13.619Z,25.19
2023-05-01T15:18:40.896Z,25.53
2023-05-01T15:21:08.229Z,25.76
2023-05-01T15:23:37.256Z,25.86
2023-05-01T15:26:04.492Z,26.23
2023-05-01T15:28:32.494Z,26.73
2023-05-01T15:30:59.580Z,26.75
2023-05-01T15:33:26.757Z,26.32
2023-05-01T15:35:54.298Z,26.68
2023-05-01T15:38:22.025Z,26.70
2023-05-01T15:40:50.354Z,26.72
2023-05-01T15:43:17.545Z,25.84
2023-05-01T15:45:45.124Z,25.13
2023-05-01T15:48:12.407Z,24.70
2023-05-01T15:50:39.643Z,24.49
2023-05-01T15:53:06.732Z,24.25
2023-05-01T15:55:35.033Z,24.12
2023-05-01T15:58:03.097Z,23.95
2023-05-01T16:00:30.307Z,23.82
2023-05-01T16:02:57.554Z,23.45
2023-05-01T16:05:25.173Z,23.29
2023-05-01T16:07:55.746Z,23.20
2023-05-01T16:10:23.591Z,22.85
2023-05-01T16:12:53.756Z,22.80
2023-05-01T16:15:22.368Z,22.99
2023-05-01T16:17:51.648Z,23.02
2023-05-01T16:20:19.193Z,22.98
2023-05-01T16:22:46.511Z,22.91
2023-05-01T16:25:14.482Z,22.74
2023-05-01T16:27:44.688Z,22.60
2023-05-01T16:30:16.386Z,22.71
2023-05-01T16:32:45.171Z,22.59
2023-05-01T16:35:18.068Z,22.44
2023-05-01T16:37:45.367Z,22.29
2023-05-01T16:40:17.212Z,22.08
2023-05-01T16:42:54.842Z,21.96
2023-05-01T16:45:22.204Z,21.98
2023-05-01T16:47:49.489Z,21.92
2023-05-01T16:50:25.318Z,21.62
2023-05-01T16:52:55.182Z,21.46
2023-05-01T16:55:23.657Z,21.21
2023-05-01T16:57:51.314Z,21.02
2023-05-01T17:00:18.953Z,20.97
2023-05-01T17:02:49.368Z,20.78
2023-05-01T17:05:16.929Z,20.63
2023-05-01T17:07:44.035Z,20.47
2023-05-01T17:10:11.829Z,20.37
2023-05-01T17:12:39.049Z,20.15
2023-05-01T17:15:07.080Z,20.20
2023-05-01T17:17:34.395Z,19.95
2023-05-01T17:20:01.932Z,20.06
2023-05-01T17:22:29.534Z,19.86
2023-05-01T17:24:57.602Z,19.81
2023-05-01T17:27:24.893Z,19.69
2023-05-01T17:29:52.163Z,19.62
2023-05-01T17:32:29.566Z,19.48
2023-05-01T17:35:04.989Z,19.34
2023-05-01T17:37:32.578Z,19.07
2023-05-01T17:39:59.996Z,19.11
2023-05-01T17:42:27.536Z,19.02
2023-05-01T17:44:54.631Z,18.94
2023-05-01T17:47:23.754Z,18.90
2023-05-01T17:49:53.039Z,18.82
2023-05-01T17:52:20.336Z,18.88
2023-05-01T17:54:47.540Z,19.24
2023-05-01T17:57:14.839Z,19.92
2023-05-01T17:59:42.076Z,19.56
2023-05-01T18:02:09.349Z,19.28
2023-05-01T18:04:38.757Z,18.95
2023-05-01T18:07:06.992Z,18.86
2023-05-01T18:09:34.950Z,18.69
2023-05-01T18:12:02.571Z,18.53
2023-05-01T18:14:30.446Z,18.34
2023-05-01T18:16:57.758Z,18.30
2023-05-01T18:19:25.040Z,18.12
2023-05-01T18:21:52.195Z,18.01
2023-05-01T18:24:19.328Z,17.95
2023-05-01T18:26:46.554Z,17.84
2023-05-01T18:29:13.904Z,17.79
2023-05-01T18:31:41.104Z,17.76
2023-05-01T18:34:10.422Z,17.81
2023-05-01T18:36:37.673Z,17.73
2023-05-01T18:39:04.897Z,17.74
2023-05-01T18:41:31.969Z,17.70
2023-05-01T18:44:01.633Z,17.70
2023-05-01T18:46:28.867Z,17.66
2023-05-01T18:48:56.218Z,17.42
2023-05-01T18:51:23.728Z,17.47
2023-05-01T18:53:50.908Z,17.51
2023-05-01T18:56:19.078Z,17.32
2023-05-01T18:58:46.222Z,17.41
2023-05-01T19:01:13.398Z,17.39
2023-05-01T19:03:40.784Z,17.37
2023-05-01T19:06:10.807Z,17.29
2023-05-01T19:08:38.208Z,17.35
2023-05-01T19:11:06.275Z,17.40
2023-05-01T19:13:34.153Z,17.34
2023-05-01T19:16:01.382Z,17.17
2023-05-01T19:18:28.846Z,17.11
2023-05-01T19:20:56.268Z,16.99
2023-05-01T19:23:23.683Z,16.96
2023-05-01T19:25:51.388Z,16.92
2023-05-01T19:28:18.590Z,16.98
2023-05-01T19:30:46.074Z,16.91
2023-05-01T19:33:13.472Z,16.94
2023-05-01T19:35:41.200Z,16.80
2023-05-01T19:38:08.348Z,16.73
2023-05-01T19:40:36.945Z,16.78
2023-05-01T19:43:04.120Z,16.79
2023-05-01T19:45:31.692Z,16.71
2023-05-01T19:47:59.196Z,16.70
2023-05-01T19:50:26.752Z,16.63
2023-05-01T19:52:53.820Z,16.68
2023-05-01T19:55:21.252Z,16.61
2023-05-01T19:57:48.408Z,16.54
2023-05-01T20:00:16.201Z,16.51
2023-05-01T20:02:43.468Z,16.43
2023-05-01T20:05:11.351Z,16.37
2023-05-01T20:07:38.466Z,16.35
2023-05-01T20:10:06.479Z,16.36
2023-05-01T20:12:34.340Z,16.25
2023-05-01T20:15:01.902Z,16.22
2023-05-01T20:17:29.700Z,16.16
2023-05-01T20:19:57.914Z,16.04
2023-05-01T20:22:31.532Z,15.98
2023-05-01T20:24:59.189Z,15.90
2023-05-01T20:27:26.736Z,15.84
2023-05-01T20:29:54.492Z,15.91
2023-05-01T20:32:21.790Z,15.83
2023-05-01T20:34:49.126Z,15.78
2023-05-01T20:37:16.781Z,15.72
2023-05-01T20:39:44.548Z,15.58
2023-05-01T20:42:11.691Z,15.62
2023-05-01T20:44:40.168Z,15.60
2023-05-01T20:47:07.509Z,15.54
2023-05-01T20:49:35.242Z,15.52
2023-05-01T20:52:02.660Z,15.30
2023-05-01T20:54:32.842Z,15.47
2023-05-01T20:57:00.602Z,15.18
2023-05-01T20:59:27.865Z,14.98
2023-05-01T21:01:55.964Z,14.98
2023-05-01T21:04:24.056Z,14.88
2023-05-01T21:06:52.807Z,15.04
2023-05-01T21:09:20.022Z,15.08
2023-05-01T21:11:47.559Z,15.11
2023-05-01T21:14:14.854Z,15.13
2023-05-01T21:16:43.177Z,15.00
2023-05-01T21:19:12.335Z,14.96
2023-05-01T21:21:39.638Z,15.04
2023-05-01T21:24:09.802Z,15.00
2023-05-01T21:26:37.770Z,14.84
2023-05-01T21:29:04.973Z,14.80
2023-05-01T21:31:33.357Z,14.74
2023-05-01T21:34:05.272Z,14.78
2023-05-01T21:36:32.840Z,14.78
2023-05-01T21:39:03.133Z,14.84
2023-05-01T21:41:30.910Z,14.77
2023-05-01T21:43:58.031Z,14.72
2023-05-01T21:46:27.574Z,14.73
2023-05-01T21:48:54.742Z,14.63
2023-05-01T21:51:33.440Z,14.35
2023-05-01T21:54:01.902Z,14.28
2023-05-01T21:56:29.623Z,14.37
2023-05-01T21:59:02.305Z,14.28
2023-05-01T22:01:30.293Z,14.25
2023-05-01T22:03:57.557Z,14.29
2023-05-01T22:06:25.844Z,14.30
2023-05-01T22:08:53.774Z,14.24
2023-05-01T22:11:24.719Z,14.32
2023-05-01T22:13:51.992Z,14.35
2023-05-01T22:16:19.457Z,14.28
2023-05-01T22:18:49.380Z,14.32
2023-05-01T22:21:17.342Z,14.31
2023-05-01T22:23:44.521Z,14.26
2023-05-01T22:26:11.607Z,14.17
2023-05-01T22:28:38.718Z,14.11
2023-05-01T22:31:06.059Z,13.87
2023-05-01T22:33:33.428Z,13.92
2023-05-01T22:36:00.607Z,13.96
2023-05-01T22:38:27.681Z,14.04
2023-05-01T22:40:54.783Z,14.07
2023-05-01T22:43:22.107Z,14.07
2023-05-01T22:45:49.249Z,14.05
2023-05-01T22:48:16.662Z,14.03
2023-05-01T22:50:44.356Z,13.99
2023-05-01T22:53:11.899Z,14.01
2023-05-01T22:55:39.537Z,14.03
2023-05-01T22:58:07.061Z,13.99
2023-05-01T23:00:34.120Z,13.98
2023-05-01T23:03:01.630Z,14.04
2023-05-01T23:05:29.622Z,14.04
2023-05-01T23:07:56.672Z,14.03
2023-05-01T23:10:27.197Z,14.01
2023-05-01T23:12:54.352Z,13.97
2023-05-01T23:15:26.606Z,13.98
2023-05-01T23:17:54.034Z,13.80
2023-05-01T23:20:23.802Z,13.94
2023-05-01T23:22:51.794Z,13.98
2023-05-01T23:25:25.869Z,13.88
2023-05-01T23:27:55.646Z,13.97
2023-05-01T23:30:23.160Z,13.95
2023-05-01T23:32:50.504Z,13.99
2023-05-01T23:35:24.091Z,13.98
2023-05-01T23:37:53.165Z,14.00
2023-05-01T23:40:20.292Z,14.06
2023-05-01T23:42:47.756Z,14.04
2023-05-01T23:45:15.441Z,14.06
2023-05-01T23:47:42.807Z,14.08
2023-05-01T23:50:10.399Z,14.16
2023-05-01T23:52:37.580Z,14.14
2023-05-01T23:55:04.984Z,14.12
2023-05-01T23:57:32.168Z,14.02
2023-05-01T23:59:59.504Z,14.07
